Time;durP1;ratioP1;P1;durP2;ratioP2;P2;SDS_P1;SDS_P2;PMS_P1;PMS_P2;Temp;Humidity;BMP_temperature;BMP_pressure;BME280_temperature;BME280_humidity;BME280_pressure;Samples;Min_cycle;Max_cycle;Signal;HPM_P1;HPM_P2
2022/03/11 00:01:58;;;;;;;22.47;17.67;;;;;;;;;;5075259;28;20217;-74
2022/03/11 00:04:38;;;;;;;23.20;17.10;;;;;;;;;;5075188;28;20214;-75
2022/03/11 00:07:07;;;;;;;23.63;16.43;;;;;;;;;;5078271;28;20220;-75
2022/03/11 00:09:36;;;;;;;22.30;17.30;;;;;;;;;;5075280;28;20719;-75
2022/03/11 00:12:06;;;;;;;21.20;16.67;;;;;;;;;;5075503;28;20210;-75
2022/03/11 00:14:34;;;;;;;23.03;17.37;;;;;;;;;;5075121;28;20218;-75
2022/03/11 00:17:04;;;;;;;22.83;16.77;;;;;;;;;;5089925;28;20221;-75
2022/03/11 00:19:33;;;;;;;23.50;16.97;;;;;;;;;;5094666;28;20645;-75
2022/03/11 00:22:02;;;;;;;24.30;18.30;;;;;;;;;;5095183;28;20206;-75
2022/03/11 00:24:30;;;;;;;22.97;16.83;;;;;;;;;;5094625;28;20343;-75
2022/03/11 00:26:59;;;;;;;23.03;16.83;;;;;;;;;;5092706;28;20234;-76
2022/03/11 00:29:28;;;;;;;21.80;16.10;;;;;;;;;;5094787;28;20202;-75
2022/03/11 00:31:56;;;;;;;22.83;17.10;;;;;;;;;;5095096;28;20209;-75
2022/03/11 00:34:26;;;;;;;22.20;16.23;;;;;;;;;;5076344;28;20206;-75
2022/03/11 00:36:54;;;;;;;21.97;16.73;;;;;;;;;;5074422;28;20229;-75
2022/03/11 00:39:23;;;;;;;23.60;17.00;;;;;;;;;;5074484;28;20205;-75
2022/03/11 00:41:52;;;;;;;22.67;16.50;;;;;;;;;;5074549;28;20584;-75
2022/03/11 00:44:20;;;;;;;21.87;16.17;;;;;;;;;;5091167;28;20229;-75
2022/03/11 00:46:48;;;;;;;23.57;16.80;;;;;;;;;;5094412;28;20224;-75
2022/03/11 00:49:17;;;;;;;25.27;16.67;;;;;;;;;;5075214;28;20202;-75
2022/03/11 00:51:47;;;;;;;24.60;16.47;;;;;;;;;;5074339;28;20206;-75
2022/03/11 00:54:15;;;;;;;20.23;15.83;;;;;;;;;;5074195;28;20278;-75
2022/03/11 00:56:43;;;;;;;21.93;16.27;;;;;;;;;;5073911;28;20597;-75
2022/03/11 00:59:12;;;;;;;23.50;15.87;;;;;;;;;;5074229;28;20595;-75
2022/03/11 01:01:40;;;;;;;20.37;16.33;;;;;;;;;;5074442;28;20235;-76
2022/03/11 01:04:09;;;;;;;20.57;15.57;;;;;;;;;;5073613;28;20219;-75
2022/03/11 01:06:37;;;;;;;21.97;16.37;;;;;;;;;;5090878;28;20224;-76
2022/03/11 01:09:07;;;;;;;20.63;15.57;;;;;;;;;;5094424;28;20209;-75
2022/03/11 01:11:38;;;;;;;21.07;14.90;;;;;;;;;;5094348;28;20232;-76
2022/03/11 01:14:07;;;;;;;21.07;16.10;;;;;;;;;;5091349;28;20201;-76
2022/03/11 01:16:35;;;;;;;21.27;15.77;;;;;;;;;;5089437;28;20226;-76
2022/03/11 01:19:04;;;;;;;20.67;15.73;;;;;;;;;;5090368;28;20207;-76
2022/03/11 01:21:32;;;;;;;23.63;16.20;;;;;;;;;;5077583;28;20213;-75
2022/03/11 01:24:01;;;;;;;20.70;15.50;;;;;;;;;;5073483;28;20235;-76
2022/03/11 01:26:31;;;;;;;20.57;16.67;;;;;;;;;;5076708;28;20222;-76
2022/03/11 01:28:59;;;;;;;20.33;15.00;;;;;;;;;;5073667;28;20608;-77
2022/03/11 01:31:27;;;;;;;19.87;15.07;;;;;;;;;;5073656;28;20209;-76
2022/03/11 01:33:56;;;;;;;19.30;15.57;;;;;;;;;;5091801;28;20295;-76
2022/03/11 01:36:24;;;;;;;19.53;15.30;;;;;;;;;;5085826;28;20260;-75
2022/03/11 01:38:54;;;;;;;22.60;16.37;;;;;;;;;;5073150;28;20206;-77
2022/03/11 01:41:22;;;;;;;21.47;14.93;;;;;;;;;;5086234;28;20217;-76
2022/03/11 01:43:53;;;;;;;18.63;14.13;;;;;;;;;;5079707;28;20209;-75
2022/03/11 01:46:21;;;;;;;21.47;16.00;;;;;;;;;;5075767;28;20243;-75
2022/03/11 01:48:50;;;;;;;21.17;14.07;;;;;;;;;;5088379;28;20209;-75
2022/03/11 01:51:19;;;;;;;23.70;16.07;;;;;;;;;;5073187;28;20223;-74
2022/03/11 01:53:47;;;;;;;19.83;14.97;;;;;;;;;;5072991;28;20573;-76
2022/03/11 01:56:16;;;;;;;20.50;14.70;;;;;;;;;;5076768;28;20745;-74
2022/03/11 01:58:44;;;;;;;21.20;15.00;;;;;;;;;;5072977;28;20573;-75
2022/03/11 02:01:14;;;;;;;22.33;15.63;;;;;;;;;;5073155;28;20256;-75
2022/03/11 02:03:42;;;;;;;19.80;15.53;;;;;;;;;;5072247;28;20214;-75
2022/03/11 02:06:13;;;;;;;20.40;14.83;;;;;;;;;;5072362;28;20226;-75
2022/03/11 02:08:42;;;;;;;18.70;14.90;;;;;;;;;;5072470;28;20212;-75
2022/03/11 02:11:11;;;;;;;19.83;14.93;;;;;;;;;;5073123;28;20212;-75
2022/03/11 02:13:43;;;;;;;20.17;14.47;;;;;;;;;;5081808;28;20667;-74
2022/03/11 02:16:14;;;;;;;19.53;14.40;;;;;;;;;;5088020;28;20223;-76
2022/03/11 02:18:43;;;;;;;18.90;14.50;;;;;;;;;;5091443;28;20205;-76
2022/03/11 02:21:12;;;;;;;20.40;15.13;;;;;;;;;;5092224;28;20231;-76
2022/03/11 02:23:46;;;;;;;19.57;15.00;;;;;;;;;;5082269;28;20219;-75
2022/03/11 02:26:15;;;;;;;19.87;15.30;;;;;;;;;;5080922;28;20222;-76
2022/03/11 02:28:44;;;;;;;18.90;14.50;;;;;;;;;;5072521;28;20205;-76
2022/03/11 02:31:13;;;;;;;19.87;14.90;;;;;;;;;;5077061;28;20252;-76
2022/03/11 02:33:41;;;;;;;19.43;14.20;;;;;;;;;;5089057;28;20206;-76
2022/03/11 02:36:10;;;;;;;20.53;15.27;;;;;;;;;;5089765;28;20678;-76
2022/03/11 02:38:39;;;;;;;19.17;14.60;;;;;;;;;;5074715;28;20208;-76
2022/03/11 02:41:09;;;;;;;19.53;14.97;;;;;;;;;;5072516;28;20231;-76
2022/03/11 02:43:38;;;;;;;18.90;14.60;;;;;;;;;;5072801;28;20198;-76
2022/03/11 02:46:06;;;;;;;20.43;14.70;;;;;;;;;;5084370;28;20231;-76
2022/03/11 02:48:35;;;;;;;19.63;14.17;;;;;;;;;;5072275;28;20622;-76
2022/03/11 02:51:03;;;;;;;19.17;13.97;;;;;;;;;;5076288;28;20213;-75
2022/03/11 02:53:32;;;;;;;21.77;15.07;;;;;;;;;;5094547;28;20204;-76
2022/03/11 02:56:01;;;;;;;24.20;16.00;;;;;;;;;;5076573;28;20199;-76
2022/03/11 02:58:30;;;;;;;22.70;16.00;;;;;;;;;;5076417;28;20198;-76
2022/03/11 03:01:01;;;;;;;23.10;15.57;;;;;;;;;;5076433;28;20208;-76
2022/03/11 03:03:30;;;;;;;21.17;14.93;;;;;;;;;;5091990;28;20691;-75
2022/03/11 03:05:58;;;;;;;19.17;14.33;;;;;;;;;;5083872;28;20590;-76
2022/03/11 03:08:27;;;;;;;22.40;14.83;;;;;;;;;;5076387;28;20200;-75
2022/03/11 03:10:55;;;;;;;17.93;13.67;;;;;;;;;;5075722;28;20234;-76
2022/03/11 03:13:24;;;;;;;20.07;15.43;;;;;;;;;;5076355;28;20221;-74
2022/03/11 03:15:54;;;;;;;24.13;14.97;;;;;;;;;;5085524;28;20207;-75
2022/03/11 03:18:23;;;;;;;21.40;15.20;;;;;;;;;;5082029;28;20234;-75
2022/03/11 03:20:51;;;;;;;21.23;15.10;;;;;;;;;;5075696;28;20221;-77
2022/03/11 03:23:20;;;;;;;19.27;14.23;;;;;;;;;;5075709;28;20249;-75
2022/03/11 03:25:48;;;;;;;21.53;15.33;;;;;;;;;;5087685;28;20350;-77
2022/03/11 03:28:16;;;;;;;20.43;13.90;;;;;;;;;;5080279;28;20221;-75
2022/03/11 03:30:45;;;;;;;21.00;14.67;;;;;;;;;;5080355;28;20205;-77
2022/03/11 03:33:15;;;;;;;22.50;15.07;;;;;;;;;;5075968;28;20203;-77
2022/03/11 03:35:43;;;;;;;21.50;15.27;;;;;;;;;;5087394;28;20690;-77
2022/03/11 03:38:11;;;;;;;21.67;14.60;;;;;;;;;;5089828;28;20228;-76
2022/03/11 03:40:40;;;;;;;22.77;15.40;;;;;;;;;;5079582;28;20209;-76
2022/03/11 03:43:08;;;;;;;22.50;15.83;;;;;;;;;;5075752;28;20568;-76
2022/03/11 03:45:37;;;;;;;24.90;14.47;;;;;;;;;;5090546;28;20686;-76
2022/03/11 03:48:06;;;;;;;18.73;14.60;;;;;;;;;;5084302;28;20241;-76
2022/03/11 03:50:36;;;;;;;21.03;16.27;;;;;;;;;;5077986;28;20203;-77
2022/03/11 03:53:04;;;;;;;21.67;15.03;;;;;;;;;;5082792;28;20202;-76
2022/03/11 03:55:33;;;;;;;21.73;14.90;;;;;;;;;;5089197;28;20195;-77
2022/03/11 03:58:02;;;;;;;20.53;14.97;;;;;;;;;;5082924;28;20227;-76
2022/03/11 04:00:30;;;;;;;21.90;14.93;;;;;;;;;;5095364;28;20658;-77
2022/03/11 04:02:59;;;;;;;22.70;15.50;;;;;;;;;;5095249;28;20261;-75
2022/03/11 04:05:27;;;;;;;21.37;16.07;;;;;;;;;;5085342;28;20262;-75
2022/03/11 04:07:57;;;;;;;20.10;14.20;;;;;;;;;;5075026;28;20297;-75
2022/03/11 04:10:25;;;;;;;20.23;14.20;;;;;;;;;;5075544;28;20284;-76
2022/03/11 04:12:54;;;;;;;20.87;14.70;;;;;;;;;;5075241;28;20196;-76
2022/03/11 04:15:23;;;;;;;22.30;15.07;;;;;;;;;;5092944;28;20289;-77
2022/03/11 04:17:51;;;;;;;20.40;14.50;;;;;;;;;;5075199;28;20228;-77
2022/03/11 04:20:20;;;;;;;19.90;14.10;;;;;;;;;;5074506;28;20679;-77
2022/03/11 04:22:48;;;;;;;19.87;14.40;;;;;;;;;;5075068;28;20206;-75
2022/03/11 04:25:18;;;;;;;21.67;14.83;;;;;;;;;;5074805;28;20262;-75
2022/03/11 04:27:46;;;;;;;18.80;13.33;;;;;;;;;;5094714;28;20226;-75
2022/03/11 04:30:15;;;;;;;19.20;13.83;;;;;;;;;;5094215;28;20944;-75
2022/03/11 04:32:43;;;;;;;20.20;14.07;;;;;;;;;;5087615;28;20201;-76
2022/03/11 04:35:11;;;;;;;18.27;13.30;;;;;;;;;;5094417;28;20205;-75
2022/03/11 04:37:43;;;;;;;20.00;13.10;;;;;;;;;;5086952;28;20275;-76
2022/03/11 04:40:12;;;;;;;18.07;13.27;;;;;;;;;;5084867;28;20207;-76
2022/03/11 04:42:42;;;;;;;20.70;13.83;;;;;;;;;;5093055;28;20197;-77
2022/03/11 04:45:11;;;;;;;21.57;14.03;;;;;;;;;;5089507;28;20198;-76
2022/03/11 04:47:39;;;;;;;20.90;14.07;;;;;;;;;;5093200;28;20221;-75
2022/03/11 04:50:09;;;;;;;20.03;13.80;;;;;;;;;;5094361;28;20201;-75
2022/03/11 04:52:37;;;;;;;21.47;13.97;;;;;;;;;;5094546;28;20202;-76
2022/03/11 04:55:06;;;;;;;19.57;13.77;;;;;;;;;;5093015;28;20198;-77
2022/03/11 04:57:34;;;;;;;21.80;13.77;;;;;;;;;;5094242;28;20213;-77
2022/03/11 05:00:05;;;;;;;20.43;14.43;;;;;;;;;;5084085;28;20194;-76
2022/03/11 05:02:34;;;;;;;21.13;14.10;;;;;;;;;;5074334;28;20215;-75
2022/03/11 05:05:05;;;;;;;19.93;13.60;;;;;;;;;;5073883;28;20194;-76
2022/03/11 05:07:33;;;;;;;21.47;13.23;;;;;;;;;;5091454;28;20226;-76
2022/03/11 05:10:02;;;;;;;19.03;13.57;;;;;;;;;;5078078;28;20203;-75
2022/03/11 05:12:35;;;;;;;17.53;13.00;;;;;;;;;;5084050;28;20595;-75
2022/03/11 05:15:05;;;;;;;17.33;13.13;;;;;;;;;;5087876;28;20197;-77
2022/03/11 05:17:35;;;;;;;20.53;13.53;;;;;;;;;;5094231;28;20585;-75
2022/03/11 05:20:05;;;;;;;18.60;13.30;;;;;;;;;;5094376;28;20205;-76
2022/03/11 05:22:34;;;;;;;17.93;12.83;;;;;;;;;;5076796;28;20650;-76
2022/03/11 05:25:02;;;;;;;20.97;12.97;;;;;;;;;;5083122;28;20194;-76
2022/03/11 05:27:31;;;;;;;19.43;12.90;;;;;;;;;;5074898;28;20230;-76
2022/03/11 05:29:59;;;;;;;18.80;12.37;;;;;;;;;;5073131;28;20199;-76
2022/03/11 05:32:29;;;;;;;19.77;13.57;;;;;;;;;;5073370;28;20203;-75
2022/03/11 05:34:58;;;;;;;18.73;13.70;;;;;;;;;;5071948;28;20570;-76
2022/03/11 05:37:26;;;;;;;18.77;13.20;;;;;;;;;;5073108;28;20214;-76
2022/03/11 05:39:55;;;;;;;18.73;13.53;;;;;;;;;;5073072;28;20198;-77
2022/03/11 05:42:23;;;;;;;17.73;12.20;;;;;;;;;;5072675;28;20248;-76
2022/03/11 05:44:52;;;;;;;19.97;13.27;;;;;;;;;;5072159;28;20723;-76
2022/03/11 05:47:20;;;;;;;19.70;12.73;;;;;;;;;;5073423;28;20234;-75
2022/03/11 05:49:50;;;;;;;18.77;13.17;;;;;;;;;;5073182;28;20649;-75
2022/03/11 05:52:18;;;;;;;17.13;12.80;;;;;;;;;;5073485;28;20209;-76
2022/03/11 05:54:47;;;;;;;18.47;12.87;;;;;;;;;;5072941;28;20206;-75
2022/03/11 05:57:15;;;;;;;18.50;12.77;;;;;;;;;;5072502;28;20219;-76
2022/03/11 05:59:43;;;;;;;20.73;13.90;;;;;;;;;;5073366;28;20202;-76
2022/03/11 06:02:12;;;;;;;16.77;12.20;;;;;;;;;;5091289;28;20677;-76
2022/03/11 06:04:41;;;;;;;19.40;13.03;;;;;;;;;;5085480;28;20210;-76
2022/03/11 06:07:11;;;;;;;17.57;12.40;;;;;;;;;;5071408;28;20218;-76
2022/03/11 06:09:39;;;;;;;17.60;12.47;;;;;;;;;;5088653;28;20267;-76
2022/03/11 06:12:08;;;;;;;18.37;12.90;;;;;;;;;;5082770;28;20210;-76
2022/03/11 06:14:37;;;;;;;17.60;12.27;;;;;;;;;;5085162;28;20212;-76
2022/03/11 06:17:05;;;;;;;16.77;12.30;;;;;;;;;;5092287;28;20222;-76
2022/03/11 06:19:34;;;;;;;20.60;13.27;;;;;;;;;;5086422;28;20232;-75
2022/03/11 06:22:03;;;;;;;16.60;12.77;;;;;;;;;;5073410;28;20202;-75
2022/03/11 06:24:34;;;;;;;20.23;13.03;;;;;;;;;;5076144;28;20194;-74
2022/03/11 06:27:02;;;;;;;18.60;12.80;;;;;;;;;;5082187;28;20666;-75
2022/03/11 06:29:31;;;;;;;18.97;12.37;;;;;;;;;;5087164;28;20204;-74
2022/03/11 06:31:59;;;;;;;16.50;11.90;;;;;;;;;;5081682;28;20209;-75
2022/03/11 06:34:29;;;;;;;16.90;12.27;;;;;;;;;;5096318;28;20198;-75
2022/03/11 06:36:58;;;;;;;19.77;13.07;;;;;;;;;;5096579;28;20213;-76
2022/03/11 06:39:26;;;;;;;17.37;12.13;;;;;;;;;;5094618;28;20206;-74
2022/03/11 06:41:56;;;;;;;16.90;12.47;;;;;;;;;;5093797;28;20195;-75
2022/03/11 06:44:24;;;;;;;16.87;12.23;;;;;;;;;;5084699;28;20215;-74
2022/03/11 06:46:52;;;;;;;16.83;11.77;;;;;;;;;;5075091;28;20228;-75
2022/03/11 06:49:21;;;;;;;15.90;11.77;;;;;;;;;;5074591;28;20199;-76
2022/03/11 06:51:49;;;;;;;15.97;11.47;;;;;;;;;;5075078;28;20204;-75
2022/03/11 06:54:18;;;;;;;16.27;11.90;;;;;;;;;;5084845;28;20210;-75
2022/03/11 06:56:46;;;;;;;16.33;11.90;;;;;;;;;;5082440;28;20236;-75
2022/03/11 06:59:16;;;;;;;17.23;11.97;;;;;;;;;;5083569;28;20203;-75
2022/03/11 07:01:44;;;;;;;16.70;12.60;;;;;;;;;;5096538;28;20209;-75
2022/03/11 07:04:13;;;;;;;16.23;11.50;;;;;;;;;;5087290;28;20212;-74
2022/03/11 07:06:42;;;;;;;17.40;11.10;;;;;;;;;;5076251;28;20241;-76
2022/03/11 07:09:10;;;;;;;16.70;12.17;;;;;;;;;;5076242;28;20229;-74
2022/03/11 07:11:39;;;;;;;13.23;10.33;;;;;;;;;;5075955;28;20211;-74
2022/03/11 07:14:07;;;;;;;14.47;9.93;;;;;;;;;;5090104;28;20204;-75
2022/03/11 07:16:37;;;;;;;14.43;10.27;;;;;;;;;;5096057;28;20228;-75
2022/03/11 07:19:05;;;;;;;15.50;10.63;;;;;;;;;;5088858;28;20197;-74
2022/03/11 07:21:34;;;;;;;12.93;10.00;;;;;;;;;;5096223;28;20219;-74
2022/03/11 07:24:02;;;;;;;13.47;10.47;;;;;;;;;;5093495;28;20673;-75
2022/03/11 07:26:31;;;;;;;14.40;9.87;;;;;;;;;;5076097;28;20720;-74
2022/03/11 07:28:59;;;;;;;12.70;9.53;;;;;;;;;;5076031;28;20307;-75
2022/03/11 07:31:28;;;;;;;11.33;9.63;;;;;;;;;;5075807;28;20263;-75
2022/03/11 07:33:58;;;;;;;11.77;9.10;;;;;;;;;;5089820;28;20525;-75
2022/03/11 07:36:27;;;;;;;12.13;9.63;;;;;;;;;;5074682;28;20226;-75
2022/03/11 07:38:56;;;;;;;11.33;9.50;;;;;;;;;;5078169;28;20195;-75
2022/03/11 07:41:27;;;;;;;11.10;9.33;;;;;;;;;;5095830;28;20202;-74
2022/03/11 07:43:55;;;;;;;13.47;9.20;;;;;;;;;;5095590;28;20202;-75
2022/03/11 07:46:41;;;;;;;11.90;9.37;;;;;;;;;;5095675;28;20232;-74
2022/03/11 07:49:11;;;;;;;13.83;9.20;;;;;;;;;;5076907;28;20222;-75
2022/03/11 07:51:40;;;;;;;11.43;8.50;;;;;;;;;;5075543;28;20561;-74
2022/03/11 07:54:08;;;;;;;13.27;8.97;;;;;;;;;;5075549;28;20210;-75
2022/03/11 07:56:37;;;;;;;11.07;8.50;;;;;;;;;;5086421;28;20229;-74
2022/03/11 07:59:06;;;;;;;11.03;8.67;;;;;;;;;;5094511;28;20190;-74
2022/03/11 08:01:35;;;;;;;11.77;8.33;;;;;;;;;;5082025;28;20206;-73
2022/03/11 08:04:05;;;;;;;13.07;8.60;;;;;;;;;;5091542;28;20232;-76
2022/03/11 08:06:36;;;;;;;10.93;8.77;;;;;;;;;;5095196;28;20232;-74
2022/03/11 08:09:05;;;;;;;14.63;8.77;;;;;;;;;;5094441;28;20226;-74
2022/03/11 08:11:34;;;;;;;10.67;7.70;;;;;;;;;;5095201;28;20209;-74
2022/03/11 08:14:02;;;;;;;12.20;8.30;;;;;;;;;;5080330;28;20194;-74
2022/03/11 08:16:30;;;;;;;11.53;8.43;;;;;;;;;;5079728;28;20222;-75
2022/03/11 08:18:59;;;;;;;10.40;7.83;;;;;;;;;;5095004;28;20197;-75
2022/03/11 08:21:27;;;;;;;10.83;8.90;;;;;;;;;;5095108;28;20685;-75
2022/03/11 08:23:57;;;;;;;13.23;9.10;;;;;;;;;;5086521;28;20202;-75
2022/03/11 08:26:26;;;;;;;14.23;8.57;;;;;;;;;;5089694;28;20617;-75
2022/03/11 08:28:55;;;;;;;11.63;8.37;;;;;;;;;;5076876;28;20625;-74
2022/03/11 08:31:44;;;;;;;16.57;8.23;;;;;;;;;;5084372;28;20199;-75
2022/03/11 08:34:13;;;;;;;13.17;8.77;;;;;;;;;;5079546;28;20665;-75
2022/03/11 08:36:42;;;;;;;9.70;8.03;;;;;;;;;;5074416;28;20798;-76
2022/03/11 08:39:12;;;;;;;11.10;8.50;;;;;;;;;;5074412;28;20669;-76
2022/03/11 08:41:41;;;;;;;9.93;7.80;;;;;;;;;;5074320;28;20390;-75
2022/03/11 08:44:09;;;;;;;10.37;8.90;;;;;;;;;;5074078;28;20204;-76
2022/03/11 08:46:38;;;;;;;10.90;8.47;;;;;;;;;;5086929;28;20718;-76
2022/03/11 08:49:07;;;;;;;11.17;8.63;;;;;;;;;;5094274;28;20236;-77
2022/03/11 08:51:36;;;;;;;10.13;8.07;;;;;;;;;;5086015;28;20229;-75
2022/03/11 08:54:05;;;;;;;10.57;8.63;;;;;;;;;;5073826;28;20218;-77
2022/03/11 08:56:35;;;;;;;10.80;8.00;;;;;;;;;;5073676;28;20283;-75
2022/03/11 08:59:05;;;;;;;10.23;8.67;;;;;;;;;;5074548;28;20209;-76
2022/03/11 09:01:33;;;;;;;10.40;8.60;;;;;;;;;;5082151;28;20280;-76
2022/03/11 09:04:04;;;;;;;10.50;7.93;;;;;;;;;;5093442;28;20661;-75
2022/03/11 09:06:33;;;;;;;9.17;7.70;;;;;;;;;;5087365;28;20242;-76
2022/03/11 09:09:01;;;;;;;9.90;7.83;;;;;;;;;;5077462;28;20221;-75
2022/03/11 09:11:30;;;;;;;10.87;7.83;;;;;;;;;;5092631;28;20205;-75
2022/03/11 09:13:59;;;;;;;9.23;7.40;;;;;;;;;;5088549;28;20194;-76
2022/03/11 09:16:28;;;;;;;10.20;7.67;;;;;;;;;;5092087;28;20221;-76
2022/03/11 09:18:56;;;;;;;11.83;7.23;;;;;;;;;;5093229;28;20555;-77
2022/03/11 09:21:25;;;;;;;11.83;7.57;;;;;;;;;;5094079;28;20210;-76
2022/03/11 09:23:53;;;;;;;10.83;7.90;;;;;;;;;;5094365;28;20206;-75
2022/03/11 09:26:22;;;;;;;9.20;6.03;;;;;;;;;;5084917;28;20226;-75
2022/03/11 09:29:12;;;;;;;7.77;6.20;;;;;;;;;;5073835;28;20252;-75
2022/03/11 09:31:40;;;;;;;10.27;6.83;;;;;;;;;;5081007;28;20201;-75
2022/03/11 09:34:09;;;;;;;9.17;6.47;;;;;;;;;;5078932;28;20684;-75
2022/03/11 09:36:37;;;;;;;8.80;6.87;;;;;;;;;;5080078;28;20600;-75
2022/03/11 09:39:06;;;;;;;8.43;6.20;;;;;;;;;;5093492;28;20682;-75
2022/03/11 09:41:34;;;;;;;7.40;5.90;;;;;;;;;;5087348;28;20194;-75
2022/03/11 09:44:03;;;;;;;8.53;6.30;;;;;;;;;;5073314;28;20213;-74
2022/03/11 09:46:34;;;;;;;9.07;6.23;;;;;;;;;;5078033;28;20217;-74
2022/03/11 09:49:04;;;;;;;8.10;5.80;;;;;;;;;;5076960;28;20225;-75
2022/03/11 09:51:34;;;;;;;11.57;6.63;;;;;;;;;;5076425;28;20197;-75
2022/03/11 09:54:03;;;;;;;6.53;5.80;;;;;;;;;;5092966;28;20205;-73
2022/03/11 09:56:32;;;;;;;8.63;5.80;;;;;;;;;;5082962;28;20224;-75
2022/03/11 09:59:00;;;;;;;8.80;5.80;;;;;;;;;;5082530;28;20193;-74
2022/03/11 10:01:29;;;;;;;8.20;5.93;;;;;;;;;;5082005;28;20213;-75
2022/03/11 10:03:59;;;;;;;9.03;6.20;;;;;;;;;;5091691;28;20201;-75
2022/03/11 10:06:41;;;;;;;10.03;6.37;;;;;;;;;;5093292;28;20233;-75
2022/03/11 10:09:30;;;;;;;7.27;6.23;;;;;;;;;;5072979;28;20704;-75
2022/03/11 10:12:00;;;;;;;8.20;6.63;;;;;;;;;;5073082;28;20884;-75
2022/03/11 10:14:29;;;;;;;9.23;6.07;;;;;;;;;;5092727;28;20197;-74
2022/03/11 10:16:58;;;;;;;8.27;6.43;;;;;;;;;;5075646;28;20222;-74
2022/03/11 10:19:28;;;;;;;7.83;6.50;;;;;;;;;;5072934;28;20195;-75
2022/03/11 10:21:58;;;;;;;10.43;6.87;;;;;;;;;;5073191;28;20252;-74
2022/03/11 10:24:27;;;;;;;10.17;6.90;;;;;;;;;;5072771;28;20552;-74
2022/03/11 10:26:57;;;;;;;7.80;6.37;;;;;;;;;;5073807;28;20704;-74
2022/03/11 10:29:27;;;;;;;10.63;6.80;;;;;;;;;;5072847;28;20234;-74
2022/03/11 10:31:58;;;;;;;9.73;6.20;;;;;;;;;;5073762;28;20614;-74
2022/03/11 10:34:27;;;;;;;7.87;6.63;;;;;;;;;;5092709;28;20610;-75
2022/03/11 10:36:58;;;;;;;11.40;6.63;;;;;;;;;;5078085;28;20222;-74
2022/03/11 10:39:27;;;;;;;11.17;6.37;;;;;;;;;;5073356;28;20194;-73
2022/03/11 10:42:17;;;;;;;9.03;6.13;;;;;;;;;;5073234;28;20198;-73
2022/03/11 10:44:56;;;;;;;7.80;6.63;;;;;;;;;;5072440;28;20212;-73
2022/03/11 10:47:25;;;;;;;10.90;6.67;;;;;;;;;;5072576;28;20244;-74
2022/03/11 10:49:55;;;;;;;8.87;6.37;;;;;;;;;;5072673;28;20226;-74
2022/03/11 10:52:31;;;;;;;8.83;6.40;;;;;;;;;;5072558;28;20685;-74
2022/03/11 10:55:00;;;;;;;7.87;6.20;;;;;;;;;;5072632;28;20210;-73
2022/03/11 10:57:37;;;;;;;8.53;5.73;;;;;;;;;;5071783;28;20701;-73
2022/03/11 11:00:19;;;;;;;7.53;5.90;;;;;;;;;;5072811;28;20248;-75
2022/03/11 11:02:48;;;;;;;9.60;6.33;;;;;;;;;;5072242;28;20207;-74
2022/03/11 11:05:18;;;;;;;8.73;6.10;;;;;;;;;;5069790;28;20204;-74
2022/03/11 11:07:48;;;;;;;7.77;6.30;;;;;;;;;;5071555;28;20211;-74
2022/03/11 11:10:18;;;;;;;12.10;6.97;;;;;;;;;;5072115;28;20217;-74
2022/03/11 11:12:47;;;;;;;10.23;6.33;;;;;;;;;;5076212;28;20199;-74
2022/03/11 11:15:15;;;;;;;12.67;6.00;;;;;;;;;;5075804;28;20206;-75
2022/03/11 11:17:45;;;;;;;8.23;6.20;;;;;;;;;;5075716;28;20589;-74
2022/03/11 11:20:20;;;;;;;11.00;6.33;;;;;;;;;;5075793;28;20225;-74
2022/03/11 11:22:51;;;;;;;9.77;6.77;;;;;;;;;;5075828;28;20252;-74
2022/03/11 11:25:20;;;;;;;9.73;6.53;;;;;;;;;;5074971;28;20202;-74
2022/03/11 11:27:49;;;;;;;7.83;5.97;;;;;;;;;;5075944;28;20225;-74
2022/03/11 11:30:21;;;;;;;7.20;5.73;;;;;;;;;;5075379;28;20222;-74
2022/03/11 11:32:52;;;;;;;8.60;6.43;;;;;;;;;;5075667;28;20265;-74
2022/03/11 11:35:25;;;;;;;9.60;6.43;;;;;;;;;;5075693;28;20272;-74
2022/03/11 11:37:55;;;;;;;8.43;6.27;;;;;;;;;;5075368;28;20226;-74
2022/03/11 11:40:31;;;;;;;10.17;6.93;;;;;;;;;;5075567;28;20227;-75
2022/03/11 11:43:26;;;;;;;9.37;6.73;;;;;;;;;;5075422;28;20289;-74
2022/03/11 11:45:56;;;;;;;8.47;6.57;;;;;;;;;;5065754;28;20578;-75
2022/03/11 11:48:45;;;;;;;8.57;6.77;;;;;;;;;;5075699;28;20208;-77
2022/03/11 11:51:15;;;;;;;8.47;6.73;;;;;;;;;;5075502;28;20272;-77
2022/03/11 11:53:51;;;;;;;10.23;6.37;;;;;;;;;;5073718;28;20201;-76
2022/03/11 11:56:30;;;;;;;10.87;6.40;;;;;;;;;;5087722;28;20688;-77
2022/03/11 11:58:58;;;;;;;7.23;6.47;;;;;;;;;;5086503;28;20247;-76
2022/03/11 12:01:43;;;;;;;8.77;6.70;;;;;;;;;;5092446;28;20213;-76
2022/03/11 12:04:24;;;;;;;8.90;6.50;;;;;;;;;;5082240;28;20209;-77
2022/03/11 12:06:56;;;;;;;8.00;6.60;;;;;;;;;;5095193;28;20231;-77
2022/03/11 12:09:45;;;;;;;7.50;6.00;;;;;;;;;;5091274;28;20665;-76
2022/03/11 12:12:29;;;;;;;10.07;6.90;;;;;;;;;;5095712;28;20227;-77
2022/03/11 12:15:18;;;;;;;10.20;6.73;;;;;;;;;;5095132;28;20194;-77
2022/03/11 12:17:48;;;;;;;9.77;6.53;;;;;;;;;;5080288;28;20214;-76
2022/03/11 12:20:26;;;;;;;7.90;5.00;;;;;;;;;;5091189;28;20186;-78
2022/03/11 12:22:57;;;;;;;7.83;5.40;;;;;;;;;;5076010;28;20210;-76
2022/03/11 12:25:26;;;;;;;7.27;5.40;;;;;;;;;;5090841;28;20558;-77
2022/03/11 12:27:59;;;;;;;6.20;5.40;;;;;;;;;;5081266;28;20222;-76
2022/03/11 12:30:29;;;;;;;7.50;5.40;;;;;;;;;;5087780;28;20206;-77
2022/03/11 12:33:00;;;;;;;7.50;5.80;;;;;;;;;;5090267;28;20277;-75
2022/03/11 12:35:31;;;;;;;9.57;5.57;;;;;;;;;;5084557;28;20193;-74
2022/03/11 12:38:00;;;;;;;7.07;5.60;;;;;;;;;;5082143;28;20222;-74
2022/03/11 12:40:29;;;;;;;8.83;5.87;;;;;;;;;;5076082;28;20198;-74
2022/03/11 12:42:59;;;;;;;8.73;5.47;;;;;;;;;;5082655;28;20198;-74
2022/03/11 12:45:33;;;;;;;7.33;6.00;;;;;;;;;;5087312;28;20195;-74
2022/03/11 12:48:02;;;;;;;11.30;5.80;;;;;;;;;;5093756;28;20573;-74
2022/03/11 12:50:30;;;;;;;10.00;6.40;;;;;;;;;;5082757;28;20230;-75
2022/03/11 12:52:59;;;;;;;8.13;5.90;;;;;;;;;;5073948;28;20202;-74
2022/03/11 12:55:30;;;;;;;9.33;5.93;;;;;;;;;;5080895;28;20202;-74
2022/03/11 12:58:00;;;;;;;9.10;6.70;;;;;;;;;;5081304;28;20218;-74
2022/03/11 13:00:36;;;;;;;10.73;5.50;;;;;;;;;;5087722;28;20194;-73
2022/03/11 13:03:07;;;;;;;6.87;5.57;;;;;;;;;;5085193;28;20211;-74
2022/03/11 13:05:37;;;;;;;7.53;5.30;;;;;;;;;;5090793;28;20217;-74
2022/03/11 13:08:06;;;;;;;11.53;5.57;;;;;;;;;;5078429;28;20219;-74
2022/03/11 13:10:35;;;;;;;8.13;5.83;;;;;;;;;;5087746;28;20222;-74
2022/03/11 13:13:05;;;;;;;9.27;6.20;;;;;;;;;;5092196;28;20618;-73
2022/03/11 13:15:38;;;;;;;6.40;5.37;;;;;;;;;;5090725;28;20195;-74
2022/03/11 13:18:08;;;;;;;6.47;4.17;;;;;;;;;;5092689;28;20365;-74
2022/03/11 13:20:42;;;;;;;6.17;4.53;;;;;;;;;;5073584;28;20209;-73
2022/03/11 13:23:12;;;;;;;6.67;5.83;;;;;;;;;;5072295;28;20198;-73
2022/03/11 13:25:42;;;;;;;6.73;4.30;;;;;;;;;;5072623;28;20214;-74
2022/03/11 13:28:11;;;;;;;12.27;6.67;;;;;;;;;;5073548;28;20223;-75
2022/03/11 13:30:41;;;;;;;8.53;5.80;;;;;;;;;;5078157;28;20237;-73
2022/03/11 13:33:13;;;;;;;7.13;5.97;;;;;;;;;;5090011;28;20224;-74
2022/03/11 13:35:42;;;;;;;6.90;4.13;;;;;;;;;;5079271;28;20202;-74
2022/03/11 13:38:11;;;;;;;6.03;4.30;;;;;;;;;;5093369;28;20236;-74
2022/03/11 13:40:50;;;;;;;8.37;4.47;;;;;;;;;;5076155;28;20267;-73
2022/03/11 13:43:22;;;;;;;6.87;4.80;;;;;;;;;;5078049;28;20201;-73
2022/03/11 13:45:54;;;;;;;7.17;4.20;;;;;;;;;;5093197;28;20190;-73
2022/03/11 13:48:27;;;;;;;6.27;4.50;;;;;;;;;;5076496;28;20194;-74
2022/03/11 13:51:06;;;;;;;5.63;4.00;;;;;;;;;;5072625;28;20226;-72
2022/03/11 13:53:36;;;;;;;5.70;4.43;;;;;;;;;;5073138;28;20217;-73
2022/03/11 13:56:17;;;;;;;7.27;4.53;;;;;;;;;;5074023;28;20614;-74
2022/03/11 13:58:46;;;;;;;7.67;4.20;;;;;;;;;;5087816;28;20209;-73
2022/03/11 14:01:16;;;;;;;7.97;4.60;;;;;;;;;;5079759;28;20193;-73
2022/03/11 14:03:49;;;;;;;8.53;4.17;;;;;;;;;;5087107;28;20670;-74
2022/03/11 14:06:31;;;;;;;6.53;4.30;;;;;;;;;;5094104;28;20249;-73
2022/03/11 14:09:02;;;;;;;5.57;4.17;;;;;;;;;;5083047;28;20208;-73
2022/03/11 14:11:30;;;;;;;6.87;4.53;;;;;;;;;;5090316;28;20205;-73
2022/03/11 14:13:59;;;;;;;5.80;4.80;;;;;;;;;;5088726;28;20202;-73
2022/03/11 14:16:32;;;;;;;6.80;4.53;;;;;;;;;;5076803;28;20222;-74
2022/03/11 14:19:01;;;;;;;6.33;4.77;;;;;;;;;;5078784;28;20213;-73
2022/03/11 14:21:30;;;;;;;6.40;4.63;;;;;;;;;;5086557;28;20209;-74
2022/03/11 14:23:58;;;;;;;7.33;4.50;;;;;;;;;;5080967;28;20243;-73
2022/03/11 14:26:30;;;;;;;6.47;4.47;;;;;;;;;;5076971;28;20228;-73
2022/03/11 14:28:58;;;;;;;6.60;4.83;;;;;;;;;;5078677;28;20262;-74
2022/03/11 14:31:28;;;;;;;8.63;4.83;;;;;;;;;;5092147;28;20221;-73
2022/03/11 14:33:59;;;;;;;5.90;5.00;;;;;;;;;;5083722;28;20273;-74
2022/03/11 14:36:27;;;;;;;7.43;4.67;;;;;;;;;;5080650;28;20222;-74
2022/03/11 14:38:56;;;;;;;5.97;4.93;;;;;;;;;;5089661;28;20239;-74
2022/03/11 14:41:26;;;;;;;8.07;4.97;;;;;;;;;;5092548;28;20635;-75
2022/03/11 14:43:55;;;;;;;6.87;4.70;;;;;;;;;;5083516;28;20195;-76
2022/03/11 14:46:24;;;;;;;5.17;4.67;;;;;;;;;;5076953;28;20232;-77